Vizconde de Eza — EAXB — position and weather

sailwx.info

Track history (hours):
 
Tides and Currents Weather Stations Pressure Air Temp Water Temp Dewpoint Dewpoint Depression Visibility Wind Speed Wind Dir Waves Ship Positions

Oceanographic research ship Vizconde de Eza (Spain)

Detailed information on ship capabilities available from University of Delaware's Ocean Information Center.

Last reported at 2020-Mar-02 22:00 UTC. Time now 2020-Apr-07 15:42 UTC.
Position N 41°11' W 008°42'.
Warning: this ship's position is 35 days out of date.

Length 53 m; draft 5.8 m.

Type: Other ship. MMSI: 224582000.

Date/timePositionNaut miles runAvg speedWind from/ knotsBaromVisibWave heightAir tempDewpointWater temp
2020-Mar-02 22:00N 41°11' W 008°42'0 0.0
2020-Mar-02 16:30N 41°11' W 008°42'0 0.0
2020-Mar-02 15:00N 41°11' W 008°42'0 0.0
2020-Mar-02 14:00N 41°11' W 008°42'0 0.0
2020-Mar-02 12:00N 41°11' W 008°42'0 0.0
2020-Mar-02 10:30N 41°11' W 008°42'0 0.0
2020-Mar-02 09:29N 41°11' W 008°42'0 0.0
2020-Mar-02 08:29N 41°11' W 008°42'0 0.0
2020-Mar-02 03:30N 41°11' W 008°42'0 0.0
2020-Mar-02 01:59N 41°11' W 008°42'0 0.0
2020-Mar-02 01:29N 41°11' W 008°42'0 0.0
2020-Mar-02 00:29N 41°11' W 008°42'0 0.0
2020-Mar-01 23:59N 41°11' W 008°42'0 0.0
2020-Mar-01 18:29N 41°11' W 008°42'0 0.0
2020-Mar-01 17:59N 41°11' W 008°42'0 0.0
2020-Mar-01 14:29N 41°11' W 008°42'0 0.0
2020-Mar-01 12:59N 41°11' W 008°42'0 0.0
2020-Mar-01 11:59N 41°11' W 008°42'0 0.0
2020-Mar-01 09:59N 41°11' W 008°42'0 0.0
2020-Mar-01 06:59N 41°11' W 008°42'0 0.0
2020-Mar-01 06:29N 41°11' W 008°42'0 0.0
2020-Mar-01 04:29N 41°11' W 008°42'0 0.0
2020-Mar-01 03:29N 41°11' W 008°42'0 0.0
2020-Mar-01 02:29N 41°11' W 008°42'0 0.0
2020-Mar-01 01:29N 41°11' W 008°42'0 0.0
2020-Feb-29 22:29N 41°11' W 008°42'0 0.0
2020-Feb-29 21:59N 41°11' W 008°42'0 0.0
2020-Feb-29 20:29N 41°11' W 008°42'0 0.0
2020-Feb-29 17:29N 41°11' W 008°42'0 0.0
2020-Feb-29 16:59N 41°11' W 008°42'0 0.0
2020-Feb-29 14:59N 41°11' W 008°42'0 0.0
2020-Feb-29 14:29N 41°11' W 008°42'0 0.0
2020-Feb-29 13:59N 41°11' W 008°42'0 0.0
2020-Feb-29 13:29N 41°11' W 008°42'0 0.0
2020-Feb-29 12:59N 41°11' W 008°42'0 0.0
2020-Feb-29 11:59N 41°11' W 008°42'0 0.0
2020-Feb-29 10:59N 41°11' W 008°42'0 0.0
2020-Feb-29 09:59N 41°11' W 008°42'0 0.0
2020-Feb-29 08:59N 41°11' W 008°42'0 0.0
2020-Feb-29 08:29N 41°11' W 008°42'0 0.0
2020-Feb-29 06:29N 41°11' W 008°42'0 0.0
2020-Feb-29 05:59N 41°11' W 008°42'0 0.0
2020-Feb-29 02:29N 41°11' W 008°42'0 0.0
2020-Feb-29 01:29N 41°11' W 008°42'0 0.0
2020-Feb-28 20:29N 41°11' W 008°42'0 0.0
2020-Feb-28 19:59N 41°11' W 008°42'0 0.0
2020-Feb-28 19:29N 41°11' W 008°42'0 0.0
2020-Feb-28 18:59N 41°11' W 008°42'5 3.2
2020-Feb-28 17:30N 41°09' W 008°47'5 1.2
2020-Feb-28 13:17N 41°14' W 008°48'0 0.5
2020-Feb-28 12:55N 41°14' W 008°48'0 0.4
2020-Feb-28 11:50N 41°14' W 008°48'3 0.1
2020-Feb-27 06:00N 41°16' W 008°46'9 0.6
2020-Feb-26 16:30N 41°08' W 008°50'2 4.7
2020-Feb-26 16:00N 41°08' W 008°47'2 4.5
2020-Feb-26 15:30N 41°08' W 008°44'8 2.1
2020-Feb-26 11:43N 41°00' W 008°43'37 1.1
2020-Feb-25 02:52N 40°28' W 009°06'9 3.9
2020-Feb-25 00:30N 40°28' W 009°18'12 2.8
2020-Feb-24 19:59N 40°20' W 009°30'26 4.8
2020-Feb-24 14:32N 40°20' W 008°56'0 9.7
2020-Feb-24 14:30N 40°20' W 008°55'33 3.1
2020-Feb-24 03:57N 40°04' W 009°33'0 0.0
2020-Feb-24 02:30N 40°04' W 009°33'9 4.3
2020-Feb-24 00:24N 40°04' W 009°21'67 4.1
2020-Feb-23 08:00N 38°58' W 009°32'3 6.6
2020-Feb-23 07:30N 38°55' W 009°31'1610.4
2020-Feb-23 06:00N 39°10' W 009°31'3812.2
2020-Feb-23 02:54N 39°47' W 009°19'12 3.6
2020-Feb-22 23:37N 39°56' W 009°29'0 0.4
2020-Feb-22 23:30N 39°56' W 009°29'3 3.1
2020-Feb-22 22:30N 39°56' W 009°33'3 3.2
2020-Feb-22 21:30N 39°56' W 009°37'9 4.2
2020-Feb-22 19:26N 39°48' W 009°33'9 4.6
2020-Feb-22 17:27N 39°48' W 009°21'3 4.8
2020-Feb-22 16:51N 39°48' W 009°17'9 4.7
2020-Feb-22 14:55N 39°48' W 009°05'18 2.5
2020-Feb-22 07:27N 39°40' W 009°27'5 3.8
2020-Feb-22 06:14N 39°40' W 009°21'3 4.1
2020-Feb-22 05:30N 39°40' W 009°17'6 2.4
2020-Feb-22 03:00N 39°37' W 009°10'13 3.6
2020-Feb-21 23:28N 39°32' W 009°25'  
Track history (hours):
 
Tides and Currents Weather Stations Pressure Air Temp Water Temp Dewpoint Dewpoint Depression Visibility Wind Speed Wind Dir Waves Ship Positions

Oceanographic research ship Vizconde de Eza (Spain)

Detailed information on ship capabilities available from University of Delaware's Ocean Information Center.

Last reported at 2020-Mar-02 22:00 UTC. Time now 2020-Apr-07 15:42 UTC.
Position N 41°11' W 008°42'.
Warning: this ship's position is 35 days out of date.

Length 53 m; draft 5.8 m.

Type: Other ship. MMSI: 224582000.

Date/timePositionNaut miles runAvg speedWind from/ knotsBaromVisibWave heightAir tempDewpointWater temp
2020-Mar-02 22:00N 41°11' W 008°42'0 0.0
2020-Mar-02 16:30N 41°11' W 008°42'0 0.0
2020-Mar-02 15:00N 41°11' W 008°42'0 0.0
2020-Mar-02 14:00N 41°11' W 008°42'0 0.0
2020-Mar-02 12:00N 41°11' W 008°42'0 0.0
2020-Mar-02 10:30N 41°11' W 008°42'0 0.0
2020-Mar-02 09:29N 41°11' W 008°42'0 0.0
2020-Mar-02 08:29N 41°11' W 008°42'0 0.0
2020-Mar-02 03:30N 41°11' W 008°42'0 0.0
2020-Mar-02 01:59N 41°11' W 008°42'0 0.0
2020-Mar-02 01:29N 41°11' W 008°42'0 0.0
2020-Mar-02 00:29N 41°11' W 008°42'0 0.0
2020-Mar-01 23:59N 41°11' W 008°42'0 0.0
2020-Mar-01 18:29N 41°11' W 008°42'0 0.0
2020-Mar-01 17:59N 41°11' W 008°42'0 0.0
2020-Mar-01 14:29N 41°11' W 008°42'0 0.0
2020-Mar-01 12:59N 41°11' W 008°42'0 0.0
2020-Mar-01 11:59N 41°11' W 008°42'0 0.0
2020-Mar-01 09:59N 41°11' W 008°42'0 0.0
2020-Mar-01 06:59N 41°11' W 008°42'0 0.0
2020-Mar-01 06:29N 41°11' W 008°42'0 0.0
2020-Mar-01 04:29N 41°11' W 008°42'0 0.0
2020-Mar-01 03:29N 41°11' W 008°42'0 0.0
2020-Mar-01 02:29N 41°11' W 008°42'0 0.0
2020-Mar-01 01:29N 41°11' W 008°42'0 0.0
2020-Feb-29 22:29N 41°11' W 008°42'0 0.0
2020-Feb-29 21:59N 41°11' W 008°42'0 0.0
2020-Feb-29 20:29N 41°11' W 008°42'0 0.0
2020-Feb-29 17:29N 41°11' W 008°42'0 0.0
2020-Feb-29 16:59N 41°11' W 008°42'0 0.0
2020-Feb-29 14:59N 41°11' W 008°42'0 0.0
2020-Feb-29 14:29N 41°11' W 008°42'0 0.0
2020-Feb-29 13:59N 41°11' W 008°42'0 0.0
2020-Feb-29 13:29N 41°11' W 008°42'0 0.0
2020-Feb-29 12:59N 41°11' W 008°42'0 0.0
2020-Feb-29 11:59N 41°11' W 008°42'0 0.0
2020-Feb-29 10:59N 41°11' W 008°42'0 0.0
2020-Feb-29 09:59N 41°11' W 008°42'0 0.0
2020-Feb-29 08:59N 41°11' W 008°42'0 0.0
2020-Feb-29 08:29N 41°11' W 008°42'0 0.0
2020-Feb-29 06:29N 41°11' W 008°42'0 0.0
2020-Feb-29 05:59N 41°11' W 008°42'0 0.0
2020-Feb-29 02:29N 41°11' W 008°42'0 0.0
2020-Feb-29 01:29N 41°11' W 008°42'0 0.0
2020-Feb-28 20:29N 41°11' W 008°42'0 0.0
2020-Feb-28 19:59N 41°11' W 008°42'0 0.0
2020-Feb-28 19:29N 41°11' W 008°42'0 0.0
2020-Feb-28 18:59N 41°11' W 008°42'5 3.2
2020-Feb-28 17:30N 41°09' W 008°47'5 1.2
2020-Feb-28 13:17N 41°14' W 008°48'0 0.5
2020-Feb-28 12:55N 41°14' W 008°48'0 0.4
2020-Feb-28 11:50N 41°14' W 008°48'3 0.1
2020-Feb-27 06:00N 41°16' W 008°46'9 0.6
2020-Feb-26 16:30N 41°08' W 008°50'2 4.7
2020-Feb-26 16:00N 41°08' W 008°47'2 4.5
2020-Feb-26 15:30N 41°08' W 008°44'8 2.1
2020-Feb-26 11:43N 41°00' W 008°43'37 1.1
2020-Feb-25 02:52N 40°28' W 009°06'9 3.9
2020-Feb-25 00:30N 40°28' W 009°18'12 2.8
2020-Feb-24 19:59N 40°20' W 009°30'26 4.8
2020-Feb-24 14:32N 40°20' W 008°56'0 9.7
2020-Feb-24 14:30N 40°20' W 008°55'33 3.1
2020-Feb-24 03:57N 40°04' W 009°33'0 0.0
2020-Feb-24 02:30N 40°04' W 009°33'9 4.3
2020-Feb-24 00:24N 40°04' W 009°21'67 4.1
2020-Feb-23 08:00N 38°58' W 009°32'3 6.6
2020-Feb-23 07:30N 38°55' W 009°31'1610.4
2020-Feb-23 06:00N 39°10' W 009°31'3812.2
2020-Feb-23 02:54N 39°47' W 009°19'12 3.6
2020-Feb-22 23:37N 39°56' W 009°29'0 0.4
2020-Feb-22 23:30N 39°56' W 009°29'3 3.1
2020-Feb-22 22:30N 39°56' W 009°33'3 3.2
2020-Feb-22 21:30N 39°56' W 009°37'9 4.2
2020-Feb-22 19:26N 39°48' W 009°33'9 4.6
2020-Feb-22 17:27N 39°48' W 009°21'3 4.8
2020-Feb-22 16:51N 39°48' W 009°17'9 4.7
2020-Feb-22 14:55N 39°48' W 009°05'18 2.5
2020-Feb-22 07:27N 39°40' W 009°27'5 3.8
2020-Feb-22 06:14N 39°40' W 009°21'3 4.1
2020-Feb-22 05:30N 39°40' W 009°17'6 2.4
2020-Feb-22 03:00N 39°37' W 009°10'13 3.6
2020-Feb-21 23:28N 39°32' W 009°25'  

Dump ship's entire track history